Time;durP1;ratioP1;P1;durP2;ratioP2;P2;SDS_P1;SDS_P2;PMS_P1;PMS_P2;Temp;Humidity;BMP_temperature;BMP_pressure;BME280_temperature;BME280_humidity;BME280_pressure;Samples;Min_cycle;Max_cycle;Signal;HPM_P1;HPM_P2
2021/10/08 00:00:07;;;;;;;5.47;3.40;;;18.30;53.30;;;;;;5046791;28;20189;-46
2021/10/08 00:02:33;;;;;;;3.97;3.67;;;18.30;53.20;;;;;;5027399;28;20969;-46
2021/10/08 00:04:59;;;;;;;4.67;3.70;;;18.30;53.50;;;;;;5043414;28;20441;-46
2021/10/08 00:07:24;;;;;;;5.43;4.67;;;18.30;53.40;;;;;;5048255;28;20224;-46
2021/10/08 00:09:50;;;;;;;6.70;4.33;;;18.30;53.50;;;;;;5049721;28;20200;-46
2021/10/08 00:12:15;;;;;;;4.17;3.77;;;18.30;53.90;;;;;;5044597;28;20250;-45
2021/10/08 00:14:41;;;;;;;6.83;4.20;;;18.30;53.70;;;;;;5048546;28;20211;-45
2021/10/08 00:17:07;;;;;;;4.57;4.17;;;18.30;53.30;;;;;;5043120;28;20197;-45
2021/10/08 00:19:33;;;;;;;4.53;4.13;;;18.20;53.50;;;;;;5042043;28;20208;-46
2021/10/08 00:21:59;;;;;;;6.70;4.30;;;18.20;53.40;;;;;;5047337;28;20450;-45
2021/10/08 00:24:24;;;;;;;4.80;3.90;;;18.20;53.90;;;;;;5046850;28;20894;-45
2021/10/08 00:26:50;;;;;;;4.10;3.70;;;18.20;54.00;;;;;;5046167;28;20581;-45
2021/10/08 00:29:15;;;;;;;4.30;3.87;;;18.20;53.40;;;;;;5046082;28;20199;-45
2021/10/08 00:31:41;;;;;;;3.47;3.27;;;18.20;53.60;;;;;;5048543;28;20278;-46
2021/10/08 00:34:07;;;;;;;4.00;3.70;;;18.20;54.50;;;;;;5043889;28;20284;-44
2021/10/08 00:36:32;;;;;;;3.40;3.17;;;18.20;54.70;;;;;;5043803;28;20199;-45
2021/10/08 00:38:58;;;;;;;4.33;3.90;;;18.30;54.20;;;;;;5022899;28;20655;-45
2021/10/08 00:41:24;;;;;;;3.80;3.50;;;18.20;52.90;;;;;;5046298;28;20203;-45
2021/10/08 00:43:52;;;;;;;3.70;3.30;;;18.00;52.30;;;;;;5045546;28;20447;-45
2021/10/08 00:46:18;;;;;;;4.00;3.70;;;17.80;52.30;;;;;;5044841;28;20537;-46
2021/10/08 00:48:48;;;;;;;5.00;3.80;;;17.60;52.80;;;;;;5043994;28;20566;-47
2021/10/08 00:51:13;;;;;;;3.93;3.63;;;17.30;53.20;;;;;;5049853;28;20287;-46
2021/10/08 00:53:39;;;;;;;4.17;3.40;;;17.10;53.40;;;;;;5050201;28;21002;-45
2021/10/08 00:56:05;;;;;;;3.90;3.50;;;16.90;53.70;;;;;;5048238;28;20215;-45
2021/10/08 00:58:31;;;;;;;5.40;4.60;;;16.70;54.10;;;;;;5047354;28;20187;-46
2021/10/08 01:00:57;;;;;;;4.50;4.10;;;16.50;54.60;;;;;;5044837;28;22285;-46
2021/10/08 01:03:23;;;;;;;7.07;4.60;;;16.40;55.40;;;;;;5048937;28;20188;-45
2021/10/08 01:05:49;;;;;;;3.57;3.27;;;16.20;55.60;;;;;;5048655;28;20193;-45
2021/10/08 01:08:15;;;;;;;5.43;3.40;;;16.10;55.60;;;;;;5051182;28;20442;-47
2021/10/08 01:10:42;;;;;;;4.37;3.80;;;16.10;55.50;;;;;;5050718;28;20453;-48
2021/10/08 01:13:09;;;;;;;4.07;3.23;;;16.00;55.50;;;;;;5051479;28;20486;-45
2021/10/08 01:15:36;;;;;;;5.07;3.93;;;15.90;55.60;;;;;;5052390;28;20435;-46
2021/10/08 01:18:02;;;;;;;5.20;3.93;;;15.80;55.90;;;;;;5049287;28;20898;-46
2021/10/08 01:20:28;;;;;;;4.40;4.03;;;15.80;56.40;;;;;;5051239;28;20454;-45
2021/10/08 01:22:57;;;;;;;4.20;3.90;;;15.70;56.40;;;;;;5050141;28;20447;-46
2021/10/08 01:25:25;;;;;;;4.50;3.87;;;15.70;56.60;;;;;;5052844;28;20541;-45
2021/10/08 01:27:51;;;;;;;4.40;3.93;;;15.60;56.90;;;;;;5047992;28;20450;-46
2021/10/08 01:30:17;;;;;;;3.77;3.47;;;15.50;56.90;;;;;;5051338;28;20473;-49
2021/10/08 01:32:42;;;;;;;4.40;4.00;;;15.50;56.90;;;;;;5047637;28;20229;-46
2021/10/08 01:35:08;;;;;;;4.37;3.97;;;15.40;56.90;;;;;;5050957;28;20204;-46
2021/10/08 01:37:34;;;;;;;4.97;4.40;;;15.40;56.70;;;;;;5050016;28;20229;-45
2021/10/08 01:40:02;;;;;;;4.30;3.90;;;15.40;56.60;;;;;;5051942;28;20873;-45
2021/10/08 01:42:29;;;;;;;4.03;3.73;;;15.30;56.50;;;;;;5047093;28;20250;-47
2021/10/08 01:44:55;;;;;;;7.67;4.23;;;15.30;56.80;;;;;;5046746;28;20495;-46
2021/10/08 01:47:20;;;;;;;4.33;3.93;;;15.20;57.10;;;;;;5050694;28;20781;-47
2021/10/08 01:49:46;;;;;;;6.20;4.33;;;15.20;57.20;;;;;;5042424;28;20529;-45
2021/10/08 01:52:12;;;;;;;4.17;3.80;;;15.20;57.30;;;;;;5044856;28;20312;-46
2021/10/08 01:54:38;;;;;;;4.40;4.00;;;15.20;57.30;;;;;;5045425;28;20189;-46
2021/10/08 01:57:03;;;;;;;4.63;4.23;;;15.10;57.20;;;;;;5042681;28;20192;-47
2021/10/08 01:59:29;;;;;;;4.30;3.93;;;15.10;57.00;;;;;;5048547;28;20651;-46
2021/10/08 02:01:55;;;;;;;5.00;4.03;;;15.00;56.60;;;;;;5047770;28;20191;-49
2021/10/08 02:04:20;;;;;;;3.77;3.47;;;15.00;56.70;;;;;;5043904;28;20184;-46
2021/10/08 02:06:46;;;;;;;5.43;3.73;;;14.90;56.70;;;;;;5049342;28;20554;-45
2021/10/08 02:09:11;;;;;;;4.23;3.60;;;14.90;56.70;;;;;;5051745;28;20188;-46
2021/10/08 02:11:37;;;;;;;3.60;3.30;;;14.90;56.80;;;;;;5049595;28;20252;-47
2021/10/08 02:14:03;;;;;;;4.10;3.70;;;14.80;57.50;;;;;;5047109;28;20283;-45
2021/10/08 02:16:29;;;;;;;3.90;3.60;;;14.80;57.10;;;;;;5045943;28;20668;-45
2021/10/08 02:18:56;;;;;;;3.73;3.40;;;14.80;57.20;;;;;;5052478;28;20858;-45
2021/10/08 02:21:23;;;;;;;3.57;3.27;;;14.70;57.00;;;;;;5050701;28;20297;-47
2021/10/08 02:23:49;;;;;;;5.03;4.37;;;14.70;57.20;;;;;;5048071;28;21308;-46
2021/10/08 02:26:15;;;;;;;3.93;3.63;;;14.60;57.20;;;;;;5048529;28;20444;-45
2021/10/08 02:28:41;;;;;;;4.77;3.53;;;14.60;57.30;;;;;;5045318;28;20244;-46
2021/10/08 02:31:07;;;;;;;3.97;3.67;;;14.60;57.50;;;;;;5041229;28;20790;-46
2021/10/08 02:33:34;;;;;;;3.90;3.50;;;14.60;57.60;;;;;;5046984;28;20201;-46
2021/10/08 02:36:04;;;;;;;3.80;3.50;;;14.50;57.70;;;;;;5052608;28;20193;-45
2021/10/08 02:38:30;;;;;;;3.80;3.50;;;14.50;57.80;;;;;;5048340;28;20542;-47
2021/10/08 02:40:55;;;;;;;3.40;2.93;;;14.50;58.00;;;;;;5050147;28;20533;-46
2021/10/08 02:43:21;;;;;;;3.20;3.00;;;14.50;57.90;;;;;;5049335;28;20652;-46
2021/10/08 02:45:47;;;;;;;3.30;3.10;;;14.40;57.80;;;;;;5050157;28;20195;-46
2021/10/08 02:48:13;;;;;;;3.50;3.20;;;14.40;57.90;;;;;;5048057;28;20197;-45
2021/10/08 02:50:39;;;;;;;4.27;3.00;;;14.40;58.00;;;;;;5022475;28;20546;-47
2021/10/08 02:53:04;;;;;;;3.60;3.30;;;14.40;58.00;;;;;;5042935;28;20548;-46
2021/10/08 02:55:30;;;;;;;3.37;3.17;;;14.40;58.40;;;;;;5045754;28;20193;-46
2021/10/08 02:57:56;;;;;;;2.40;2.30;;;14.30;58.10;;;;;;5045720;28;20231;-46
2021/10/08 03:00:21;;;;;;;4.40;2.80;;;14.30;58.00;;;;;;5048216;28;20203;-47
2021/10/08 03:02:47;;;;;;;3.43;2.60;;;14.30;57.90;;;;;;5040276;28;20577;-45
2021/10/08 03:05:13;;;;;;;4.00;3.23;;;14.20;57.60;;;;;;5045505;28;20338;-46
2021/10/08 03:07:39;;;;;;;3.23;2.80;;;14.20;57.60;;;;;;5045479;28;20242;-45
2021/10/08 03:10:07;;;;;;;3.70;3.40;;;14.20;57.80;;;;;;5045866;28;20200;-45
2021/10/08 03:12:33;;;;;;;4.97;3.60;;;14.20;58.00;;;;;;5050038;28;20494;-46
2021/10/08 03:14:58;;;;;;;3.53;3.17;;;14.10;58.00;;;;;;5049278;28;20447;-46
2021/10/08 03:17:24;;;;;;;3.27;2.80;;;14.10;57.90;;;;;;5048756;28;20228;-51
2021/10/08 03:19:49;;;;;;;3.70;3.40;;;14.10;57.80;;;;;;5042373;28;20712;-45
2021/10/08 03:22:15;;;;;;;4.37;3.90;;;14.10;57.80;;;;;;5050224;28;20188;-46
2021/10/08 03:24:41;;;;;;;2.97;2.77;;;14.10;57.80;;;;;;5048413;28;20242;-46
2021/10/08 03:27:06;;;;;;;3.90;2.90;;;14.10;57.80;;;;;;5048574;28;20268;-45
2021/10/08 03:29:32;;;;;;;3.97;3.67;;;14.10;57.50;;;;;;5045986;28;20203;-48
2021/10/08 03:31:58;;;;;;;3.00;2.80;;;14.00;57.10;;;;;;5048115;28;20224;-47
2021/10/08 03:34:23;;;;;;;3.17;2.87;;;14.00;57.10;;;;;;5047771;28;20188;-45
2021/10/08 03:36:51;;;;;;;3.40;3.00;;;14.00;57.00;;;;;;5048935;28;20630;-45
2021/10/08 03:39:23;;;;;;;3.63;3.33;;;13.90;57.10;;;;;;5048318;28;20223;-46
2021/10/08 03:41:50;;;;;;;4.83;4.43;;;13.90;57.10;;;;;;5042258;28;20459;-46
2021/10/08 03:44:16;;;;;;;6.50;4.77;;;13.80;57.30;;;;;;5047163;28;20446;-46
2021/10/08 03:46:49;;;;;;;3.80;3.50;;;13.80;57.60;;;;;;5044412;28;20451;-46
2021/10/08 03:49:15;;;;;;;3.80;3.50;;;13.80;57.70;;;;;;5039044;28;20518;-47
2021/10/08 03:51:47;;;;;;;3.90;3.60;;;13.80;57.70;;;;;;5048522;28;20475;-46
2021/10/08 03:54:14;;;;;;;3.97;3.70;;;13.90;57.80;;;;;;5039261;28;20446;-46
2021/10/08 03:56:40;;;;;;;3.60;3.30;;;13.80;57.80;;;;;;5045550;28;20448;-46
2021/10/08 03:59:07;;;;;;;4.50;3.07;;;13.80;57.80;;;;;;5045941;28;20439;-45
2021/10/08 04:01:33;;;;;;;5.13;3.63;;;13.80;57.80;;;;;;5045270;28;20188;-45
2021/10/08 04:04:00;;;;;;;3.80;3.23;;;13.90;58.00;;;;;;5047934;28;20435;-45
2021/10/08 04:06:26;;;;;;;3.27;3.03;;;13.90;58.10;;;;;;5047014;28;20521;-45
2021/10/08 04:08:52;;;;;;;4.80;3.23;;;13.80;58.10;;;;;;5048618;28;20461;-46
2021/10/08 04:11:17;;;;;;;2.90;2.70;;;13.80;58.20;;;;;;5050327;28;20203;-45
2021/10/08 04:13:43;;;;;;;3.00;2.77;;;13.80;58.30;;;;;;5041858;28;20263;-47
2021/10/08 04:16:09;;;;;;;4.10;2.97;;;13.70;58.30;;;;;;5045050;28;20200;-45
2021/10/08 04:18:34;;;;;;;4.80;4.03;;;13.70;58.30;;;;;;5049395;28;20199;-45
2021/10/08 04:21:00;;;;;;;5.07;4.00;;;13.70;58.40;;;;;;5050200;28;20200;-45
2021/10/08 04:23:26;;;;;;;4.40;4.10;;;13.80;58.60;;;;;;5054365;28;20197;-46
2021/10/08 04:25:51;;;;;;;7.30;4.27;;;13.80;58.50;;;;;;5051740;28;20281;-49
2021/10/08 04:28:17;;;;;;;5.33;4.63;;;13.80;58.50;;;;;;5046547;28;20228;-45
2021/10/08 04:30:43;;;;;;;13.10;6.20;;;13.80;58.90;;;;;;5047041;28;20267;-45
2021/10/08 04:33:17;;;;;;;7.77;5.67;;;13.70;59.20;;;;;;5051657;28;21310;-46
2021/10/08 04:35:43;;;;;;;8.27;5.80;;;13.70;59.50;;;;;;5045941;28;20204;-46
2021/10/08 04:38:08;;;;;;;10.10;6.03;;;13.70;59.80;;;;;;5048055;28;20491;-49
2021/10/08 04:40:34;;;;;;;9.83;6.67;;;13.70;60.20;;;;;;5048696;28;20548;-47
2021/10/08 04:43:00;;;;;;;6.23;4.70;;;13.70;60.40;;;;;;5049430;28;20607;-45
2021/10/08 04:45:26;;;;;;;6.80;5.80;;;13.70;60.80;;;;;;5050146;28;20188;-45
2021/10/08 04:47:51;;;;;;;7.73;4.90;;;13.70;60.30;;;;;;5047941;28;20271;-48
2021/10/08 04:50:17;;;;;;;7.97;5.17;;;13.70;60.00;;;;;;5050533;28;20590;-47
2021/10/08 04:52:43;;;;;;;12.90;6.43;;;13.70;59.80;;;;;;5053070;28;20240;-45
2021/10/08 04:55:09;;;;;;;9.10;5.83;;;13.70;59.80;;;;;;5050979;28;20287;-45
2021/10/08 04:57:35;;;;;;;10.07;5.77;;;13.60;60.00;;;;;;5048892;28;20926;-46
2021/10/08 05:00:00;;;;;;;6.80;6.10;;;13.60;60.10;;;;;;5049465;28;20200;-45
2021/10/08 05:02:26;;;;;;;7.37;5.40;;;13.70;60.10;;;;;;5049886;28;20605;-47
2021/10/08 05:04:52;;;;;;;8.60;5.50;;;13.70;59.90;;;;;;5050511;28;20753;-45
2021/10/08 05:07:17;;;;;;;6.40;5.03;;;13.70;59.80;;;;;;5052736;28;20553;-45
2021/10/08 05:09:43;;;;;;;6.60;5.67;;;13.70;59.80;;;;;;5041898;28;20194;-45
2021/10/08 05:12:08;;;;;;;6.53;5.93;;;13.70;59.80;;;;;;5042925;28;20221;-45
2021/10/08 05:14:34;;;;;;;8.83;6.37;;;13.70;59.90;;;;;;5044545;28;20195;-44
2021/10/08 05:17:00;;;;;;;9.73;6.10;;;13.70;60.00;;;;;;5044283;28;21951;-46
2021/10/08 05:19:25;;;;;;;10.10;6.17;;;13.70;60.00;;;;;;5051595;28;20201;-45
2021/10/08 05:21:54;;;;;;;7.60;3.30;;;13.80;60.10;;;;;;5048845;28;20567;-44
2021/10/08 05:24:20;;;;;;;12.10;6.33;;;13.70;68.30;;;;;;5049166;28;20193;-50
2021/10/08 05:26:45;;;;;;;10.07;6.70;;;13.90;70.40;;;;;;5052375;28;20806;-45
2021/10/08 05:29:11;;;;;;;12.40;7.20;;;14.40;66.90;;;;;;5049207;28;20261;-46
2021/10/08 05:31:36;;;;;;;11.77;7.30;;;14.80;63.00;;;;;;5048830;28;20220;-45
2021/10/08 05:34:02;;;;;;;8.30;7.30;;;15.10;60.70;;;;;;5049382;28;20657;-44
2021/10/08 05:36:27;;;;;;;16.07;6.90;;;15.40;59.50;;;;;;5046536;28;20196;-45
2021/10/08 05:38:53;;;;;;;13.23;6.20;;;15.60;58.60;;;;;;5045727;28;20964;-46
2021/10/08 05:41:19;;;;;;;8.10;5.80;;;15.70;57.90;;;;;;5049603;28;20254;-45
2021/10/08 05:43:45;;;;;;;8.20;6.10;;;15.80;57.40;;;;;;5048980;28;20189;-45
2021/10/08 05:46:10;;;;;;;7.50;6.07;;;16.00;56.90;;;;;;5047352;28;20194;-46
2021/10/08 05:48:36;;;;;;;9.70;5.87;;;16.10;56.40;;;;;;5051729;28;20228;-47
2021/10/08 05:51:02;;;;;;;5.87;4.80;;;16.20;56.20;;;;;;5048971;28;20210;-46
2021/10/08 05:53:27;;;;;;;6.40;5.80;;;16.30;55.90;;;;;;5052537;28;20232;-44
2021/10/08 05:55:53;;;;;;;13.57;4.87;;;16.30;55.70;;;;;;5051645;28;20196;-44
2021/10/08 05:58:19;;;;;;;34.13;6.83;;;16.30;55.30;;;;;;5053492;28;20211;-48
2021/10/08 06:00:44;;;;;;;5.67;4.80;;;16.40;55.20;;;;;;5052671;28;20199;-46
2021/10/08 06:03:10;;;;;;;15.80;4.83;;;16.40;55.00;;;;;;5050925;28;20258;-44
2021/10/08 06:05:38;;;;;;;9.53;4.17;;;16.50;55.00;;;;;;5051107;28;20535;-44
2021/10/08 06:08:05;;;;;;;4.63;4.23;;;16.40;54.90;;;;;;5052598;28;20196;-46
2021/10/08 06:10:31;;;;;;;17.47;5.40;;;16.50;54.80;;;;;;5052445;28;20482;-45
2021/10/08 06:12:56;;;;;;;4.70;4.20;;;16.50;54.50;;;;;;5051543;28;20992;-49
2021/10/08 06:15:22;;;;;;;4.60;4.20;;;16.50;54.50;;;;;;5052161;28;20271;-45
2021/10/08 06:17:48;;;;;;;18.10;5.00;;;16.50;54.40;;;;;;5051446;28;20203;-45
2021/10/08 06:20:13;;;;;;;3.83;3.53;;;16.50;54.20;;;;;;5052488;28;20200;-44
2021/10/08 06:22:40;;;;;;;4.67;4.27;;;16.40;54.20;;;;;;5052296;28;20216;-50
2021/10/08 06:25:07;;;;;;;4.77;4.33;;;16.50;54.30;;;;;;5052136;28;20647;-45
2021/10/08 06:27:33;;;;;;;5.10;4.60;;;16.50;54.20;;;;;;5051292;28;20789;-45
2021/10/08 06:29:59;;;;;;;5.90;4.53;;;16.60;54.70;;;;;;5047574;28;20526;-44
2021/10/08 06:32:25;;;;;;;5.73;5.17;;;16.60;54.20;;;;;;5049101;28;20881;-47
2021/10/08 06:34:52;;;;;;;6.33;4.90;;;16.60;54.20;;;;;;5051783;28;20204;-44
2021/10/08 06:37:17;;;;;;;6.93;5.60;;;16.60;54.20;;;;;;5051774;28;20438;-46
2021/10/08 06:39:43;;;;;;;5.80;5.20;;;16.60;53.40;;;;;;5049099;28;20275;-48
2021/10/08 06:42:08;;;;;;;9.20;6.33;;;16.50;53.50;;;;;;5050830;28;20556;-45
2021/10/08 06:44:34;;;;;;;9.60;6.77;;;16.30;54.00;;;;;;5052242;28;20632;-45
2021/10/08 06:47:00;;;;;;;9.60;8.27;;;16.20;54.50;;;;;;5051888;28;20196;-44
2021/10/08 06:49:25;;;;;;;10.73;7.50;;;16.00;54.70;;;;;;5050939;28;20268;-44
2021/10/08 06:51:51;;;;;;;14.50;9.07;;;15.90;55.40;;;;;;5052008;28;20224;-45
2021/10/08 06:54:17;;;;;;;15.00;11.20;;;15.80;55.60;;;;;;5041943;28;20223;-45
2021/10/08 06:56:42;;;;;;;16.00;10.90;;;15.70;56.00;;;;;;5044256;28;20200;-44
2021/10/08 06:59:08;;;;;;;16.17;11.97;;;15.70;56.10;;;;;;5043948;28;20203;-47
2021/10/08 07:01:33;;;;;;;15.50;11.03;;;15.70;56.40;;;;;;5045301;28;20725;-48
2021/10/08 07:03:59;;;;;;;12.83;10.03;;;15.60;56.40;;;;;;5049911;28;20203;-45
2021/10/08 07:06:25;;;;;;;12.63;9.53;;;15.60;56.70;;;;;;5050339;28;20185;-46
2021/10/08 07:08:50;;;;;;;13.80;10.70;;;15.60;56.90;;;;;;5048548;28;20703;-45
2021/10/08 07:11:16;;;;;;;12.00;10.13;;;15.50;56.90;;;;;;5049942;28;20192;-45
2021/10/08 07:13:41;;;;;;;14.10;10.03;;;15.50;57.20;;;;;;5049423;28;20228;-46
2021/10/08 07:16:07;;;;;;;18.10;10.63;;;15.50;57.30;;;;;;5049181;28;20220;-45
2021/10/08 07:18:34;;;;;;;17.50;12.30;;;15.60;57.60;;;;;;5049631;28;20647;-44
2021/10/08 07:21:04;;;;;;;16.20;11.93;;;15.60;57.60;;;;;;5051443;28;20196;-43
2021/10/08 07:23:32;;;;;;;12.63;8.00;;;15.70;57.90;;;;;;5049324;28;20439;-44
2021/10/08 07:25:58;;;;;;;15.53;12.57;;;15.80;59.60;;;;;;5048812;28;20423;-47
2021/10/08 07:28:24;;;;;;;10.70;7.83;;;16.10;60.70;;;;;;5047135;28;21007;-44
2021/10/08 07:30:49;;;;;;;21.43;13.70;;;16.30;59.70;;;;;;5049857;28;20242;-45
2021/10/08 07:33:15;;;;;;;16.30;10.30;;;16.50;59.10;;;;;;5051681;28;20273;-46
2021/10/08 07:35:41;;;;;;;17.33;12.40;;;16.70;58.00;;;;;;5046772;28;20283;-45
2021/10/08 07:38:07;;;;;;;11.17;7.50;;;16.80;57.60;;;;;;5044144;28;20542;-45
2021/10/08 07:40:33;;;;;;;12.73;10.87;;;16.80;58.70;;;;;;5045044;28;20439;-46
2021/10/08 07:42:58;;;;;;;14.03;11.20;;;17.10;58.90;;;;;;5046173;28;20518;-45
2021/10/08 07:45:24;;;;;;;13.43;11.07;;;17.30;57.40;;;;;;5044187;28;20188;-45
2021/10/08 07:47:50;;;;;;;13.07;10.30;;;17.40;56.80;;;;;;5039865;28;20640;-47
2021/10/08 07:50:16;;;;;;;14.50;10.60;;;17.40;57.00;;;;;;5048956;28;20240;-45
2021/10/08 07:52:42;;;;;;;14.67;12.30;;;17.50;56.90;;;;;;5050655;28;20234;-47
2021/10/08 07:55:10;;;;;;;14.83;10.83;;;17.60;56.30;;;;;;5047539;28;20806;-46
2021/10/08 07:57:37;;;;;;;11.17;9.90;;;17.70;57.10;;;;;;5048429;28;21012;-46
2021/10/08 08:00:08;;;;;;;13.30;10.43;;;18.00;56.00;;;;;;5049746;28;20971;-45
2021/10/08 08:02:33;;;;;;;13.70;8.33;;;18.20;55.40;;;;;;5048868;28;20443;-45
2021/10/08 08:04:59;;;;;;;16.87;10.80;;;18.30;55.20;;;;;;5048005;28;20431;-46
2021/10/08 08:07:25;;;;;;;11.77;10.67;;;18.50;54.50;;;;;;5048513;28;20235;-46
2021/10/08 08:09:50;;;;;;;14.53;11.60;;;18.60;54.30;;;;;;5047679;28;20497;-47
2021/10/08 08:12:17;;;;;;;11.83;10.53;;;18.60;54.30;;;;;;5046787;28;20228;-45
2021/10/08 08:14:42;;;;;;;10.93;9.80;;;18.50;53.80;;;;;;5050393;28;20216;-45
2021/10/08 08:17:08;;;;;;;12.67;11.33;;;18.50;53.70;;;;;;5048315;28;20426;-45
2021/10/08 08:19:34;;;;;;;13.90;10.20;;;18.40;54.10;;;;;;5054078;28;20708;-45
2021/10/08 08:21:59;;;;;;;10.43;9.43;;;18.20;54.50;;;;;;5029551;28;20545;-44
2021/10/08 08:24:26;;;;;;;11.50;9.17;;;18.20;54.90;;;;;;5044126;28;20188;-45
2021/10/08 08:26:52;;;;;;;11.70;10.57;;;18.20;55.00;;;;;;5048133;28;20189;-45
2021/10/08 08:29:17;;;;;;;11.37;9.97;;;18.20;55.30;;;;;;5044612;28;20423;-44
2021/10/08 08:31:43;;;;;;;11.30;8.80;;;18.20;55.00;;;;;;5039054;28;20381;-45
2021/10/08 08:34:09;;;;;;;9.70;8.70;;;18.10;55.30;;;;;;5045503;28;20275;-44
2021/10/08 08:36:35;;;;;;;10.40;9.37;;;18.10;54.80;;;;;;5044337;28;20212;-47
2021/10/08 08:39:04;;;;;;;10.07;9.07;;;18.20;54.40;;;;;;5048057;28;20205;-46
2021/10/08 08:41:31;;;;;;;11.03;9.93;;;18.20;54.70;;;;;;5049465;28;20193;-46
2021/10/08 08:43:57;;;;;;;10.10;9.13;;;18.30;54.90;;;;;;5047795;28;20459;-45
2021/10/08 08:46:23;;;;;;;10.23;9.23;;;18.30;54.80;;;;;;5048367;28;20442;-43
2021/10/08 08:48:49;;;;;;;11.20;10.10;;;18.30;55.00;;;;;;5044676;28;20233;-43
2021/10/08 08:51:16;;;;;;;10.17;8.70;;;18.20;55.10;;;;;;5047541;28;22016;-43
2021/10/08 08:53:42;;;;;;;11.80;9.83;;;18.20;54.90;;;;;;5048411;28;20490;-44
2021/10/08 08:56:08;;;;;;;10.30;9.20;;;18.30;54.80;;;;;;5049363;28;20435;-44
2021/10/08 08:58:34;;;;;;;10.60;9.50;;;18.30;54.80;;;;;;5049274;28;20434;-46
2021/10/08 09:01:04;;;;;;;9.70;8.63;;;18.30;55.00;;;;;;5049075;28;20196;-45
2021/10/08 09:03:30;;;;;;;9.13;8.23;;;18.30;54.60;;;;;;5049075;28;20445;-46
2021/10/08 09:05:55;;;;;;;11.30;8.73;;;18.30;54.60;;;;;;5050326;28;20435;-44
2021/10/08 09:08:33;;;;;;;10.83;9.70;;;18.30;54.50;;;;;;5051055;28;20208;-44
2021/10/08 09:11:05;;;;;;;9.40;8.50;;;18.30;54.80;;;;;;5052691;28;20260;-46
2021/10/08 09:13:31;;;;;;;9.30;8.40;;;18.30;54.80;;;;;;5044009;28;20510;-46
2021/10/08 09:15:58;;;;;;;12.17;7.90;;;18.30;54.80;;;;;;5051958;28;20431;-45
2021/10/08 09:18:27;;;;;;;11.70;8.33;;;18.40;54.70;;;;;;5051497;28;20198;-45
2021/10/08 09:21:06;;;;;;;11.67;9.47;;;18.40;54.40;;;;;;5051083;28;20439;-44
2021/10/08 09:23:34;;;;;;;9.63;8.23;;;18.50;54.50;;;;;;5052590;28;20520;-46
2021/10/08 09:26:02;;;;;;;12.00;9.47;;;18.60;54.70;;;;;;5049721;28;21186;-45
2021/10/08 09:28:28;;;;;;;10.43;9.10;;;18.60;54.50;;;;;;5050820;28;20430;-44
2021/10/08 09:30:54;;;;;;;13.33;10.20;;;18.40;54.60;;;;;;5048347;28;20436;-45
2021/10/08 09:33:21;;;;;;;10.17;8.57;;;18.30;55.10;;;;;;5052396;28;20247;-44
2021/10/08 09:35:54;;;;;;;10.77;9.70;;;18.40;55.40;;;;;;5050506;28;20686;-44
2021/10/08 09:38:20;;;;;;;10.73;9.63;;;18.50;55.50;;;;;;5051538;28;20453;-44
2021/10/08 09:40:51;;;;;;;9.97;8.67;;;18.60;55.10;;;;;;5049179;28;20438;-45
2021/10/08 09:43:23;;;;;;;10.03;8.97;;;18.70;54.90;;;;;;5052836;28;20446;-44
2021/10/08 09:45:59;;;;;;;9.53;8.67;;;18.60;55.50;;;;;;5046271;28;20435;-46
2021/10/08 09:48:42;;;;;;;11.50;9.93;;;18.60;55.60;;;;;;5051033;28;20465;-44
2021/10/08 09:51:16;;;;;;;11.97;10.20;;;18.70;55.70;;;;;;5041303;28;20452;-45
2021/10/08 09:53:48;;;;;;;12.03;9.50;;;18.80;55.70;;;;;;5051517;28;20487;-44
2021/10/08 09:56:37;;;;;;;10.00;8.57;;;18.70;55.40;;;;;;5050235;28;20443;-43
2021/10/08 09:59:05;;;;;;;12.90;9.33;;;18.90;55.60;;;;;;5050643;28;20924;-44
2021/10/08 10:01:33;;;;;;;13.80;10.37;;;18.90;55.40;;;;;;5051822;28;20431;-44
2021/10/08 10:04:00;;;;;;;10.07;9.07;;;19.00;55.40;;;;;;5051077;28;20435;-44
2021/10/08 10:06:26;;;;;;;10.53;9.27;;;19.00;55.60;;;;;;5052381;28;20439;-45
2021/10/08 10:08:51;;;;;;;9.53;8.70;;;19.10;55.70;;;;;;5045414;28;20993;-48
2021/10/08 10:11:23;;;;;;;9.47;8.17;;;19.10;55.90;;;;;;5040645;28;20653;-44
2021/10/08 10:13:52;;;;;;;10.20;9.20;;;19.20;56.00;;;;;;5051851;28;20270;-44
2021/10/08 10:16:19;;;;;;;10.37;7.87;;;19.10;56.90;;;;;;5045280;28;20449;-44
2021/10/08 10:18:51;;;;;;;9.60;8.63;;;19.20;56.60;;;;;;5050662;28;20437;-44
2021/10/08 10:21:21;;;;;;;9.23;8.30;;;19.20;56.50;;;;;;5046022;28;21532;-43
2021/10/08 10:23:51;;;;;;;10.33;9.13;;;19.30;56.30;;;;;;5041470;28;20476;-44
2021/10/08 10:26:18;;;;;;;9.97;8.97;;;19.40;56.30;;;;;;5047713;28;20490;-44
2021/10/08 10:28:44;;;;;;;10.40;8.67;;;19.30;56.10;;;;;;5050260;28;21008;-45
2021/10/08 10:31:12;;;;;;;9.00;8.20;;;19.40;56.10;;;;;;5051174;28;20431;-44
2021/10/08 10:33:38;;;;;;;9.80;8.63;;;19.50;55.80;;;;;;5049690;28;22047;-44
2021/10/08 10:36:06;;;;;;;8.97;8.10;;;19.60;56.10;;;;;;5050265;28;20872;-45
2021/10/08 10:38:32;;;;;;;11.43;8.60;;;19.70;55.80;;;;;;5050344;28;20435;-46
2021/10/08 10:41:09;;;;;;;10.00;8.83;;;19.60;56.20;;;;;;5050031;28;20432;-45
2021/10/08 10:43:39;;;;;;;9.33;8.33;;;19.70;56.00;;;;;;5049113;28;20189;-47
2021/10/08 10:52:00;;;;;;;10.13;8.57;;;19.90;55.10;;;;;;5051562;28;20620;-46
2021/10/08 10:54:35;;;;;;;8.30;7.50;;;20.00;55.10;;;;;;5050523;28;20450;-45
2021/10/08 10:57:05;;;;;;;8.37;7.67;;;20.10;54.70;;;;;;5049076;28;20807;-45
2021/10/08 10:59:32;;;;;;;10.70;9.33;;;20.20;54.70;;;;;;5048770;28;20443;-45
2021/10/08 11:02:06;;;;;;;9.40;8.50;;;20.20;54.40;;;;;;5051024;28;20435;-45
2021/10/08 11:04:37;;;;;;;11.40;8.17;;;20.00;54.10;;;;;;5050340;28;20466;-46
2021/10/08 11:07:12;;;;;;;8.50;7.60;;;19.70;55.30;;;;;;5049706;28;20861;-45
2021/10/08 11:09:39;;;;;;;9.67;8.50;;;19.80;55.10;;;;;;5049975;28;20446;-45
2021/10/08 11:12:32;;;;;;;9.30;8.27;;;19.70;55.20;;;;;;5049707;28;20819;-45
2021/10/08 11:15:16;;;;;;;8.47;7.67;;;19.90;55.50;;;;;;5049026;28;20462;-45
2021/10/08 11:17:59;;;;;;;15.60;8.70;;;20.00;55.70;;;;;;5044141;28;20446;-45
2021/10/08 11:20:30;;;;;;;9.37;8.57;;;20.20;55.30;;;;;;5047630;28;20482;-45
2021/10/08 11:23:00;;;;;;;8.20;7.50;;;20.40;54.80;;;;;;5051770;28;20431;-45
2021/10/08 11:25:30;;;;;;;11.73;6.87;;;20.40;54.00;;;;;;5049437;28;20443;-44
2021/10/08 11:27:56;;;;;;;7.60;6.90;;;20.40;54.50;;;;;;5050872;28;20442;-45
2021/10/08 11:30:25;;;;;;;7.27;6.50;;;20.40;54.10;;;;;;5048707;28;20937;-50
2021/10/08 11:32:56;;;;;;;8.57;7.77;;;20.50;54.20;;;;;;5043589;28;20216;-46
2021/10/08 11:35:34;;;;;;;8.43;7.63;;;20.50;54.00;;;;;;5043302;28;20443;-47
2021/10/08 11:38:01;;;;;;;11.13;6.10;;;20.50;55.00;;;;;;5048609;28;20423;-47
2021/10/08 11:40:28;;;;;;;6.60;6.00;;;20.60;54.70;;;;;;5043197;28;20427;-46
2021/10/08 11:42:59;;;;;;;7.37;6.63;;;20.70;54.40;;;;;;5040279;28;21014;-45
2021/10/08 11:45:48;;;;;;;7.63;6.80;;;20.60;53.60;;;;;;5043095;28;20636;-45
2021/10/08 11:48:20;;;;;;;8.27;7.30;;;20.70;53.10;;;;;;5047962;28;20486;-48
2021/10/08 11:50:51;;;;;;;10.37;6.77;;;20.70;53.60;;;;;;5047100;28;20543;-47
2021/10/08 11:53:17;;;;;;;6.97;6.37;;;20.80;53.50;;;;;;5046458;28;20526;-46
2021/10/08 11:55:43;;;;;;;8.70;7.10;;;20.80;52.90;;;;;;5044620;28;20474;-46
2021/10/08 11:58:16;;;;;;;7.90;7.10;;;20.90;53.10;;;;;;5047072;28;20661;-45
2021/10/08 12:00:49;;;;;;;7.80;7.10;;;20.80;53.30;;;;;;5044740;28;20204;-46
2021/10/08 12:03:18;;;;;;;8.37;7.50;;;20.60;53.70;;;;;;5047679;28;20521;-46
2021/10/08 12:05:59;;;;;;;8.77;7.87;;;20.50;53.80;;;;;;5045194;28;20450;-49
2021/10/08 12:08:36;;;;;;;8.23;7.53;;;20.70;53.70;;;;;;5044395;28;20443;-46
2021/10/08 12:11:07;;;;;;;8.03;7.33;;;20.50;53.50;;;;;;5048836;28;20445;-47
2021/10/08 12:14:04;;;;;;;9.13;7.07;;;20.60;54.40;;;;;;5044584;28;20513;-46
2021/10/08 12:16:32;;;;;;;8.40;7.60;;;20.60;54.30;;;;;;5041822;28;20439;-47
2021/10/08 12:18:59;;;;;;;7.57;6.87;;;20.60;54.10;;;;;;5048545;28;20473;-46
2021/10/08 12:21:43;;;;;;;9.00;8.10;;;20.60;53.80;;;;;;5036978;28;20435;-46
2021/10/08 12:24:09;;;;;;;10.40;7.57;;;20.70;54.10;;;;;;5050407;28;20493;-46
2021/10/08 12:26:57;;;;;;;12.77;8.80;;;20.60;54.60;;;;;;5049751;28;20853;-51
2021/10/08 12:29:23;;;;;;;9.60;8.60;;;20.40;55.00;;;;;;5046358;28;20853;-45
2021/10/08 12:31:52;;;;;;;10.83;8.60;;;20.30;55.30;;;;;;5049404;28;20427;-45
2021/10/08 12:34:36;;;;;;;14.77;8.43;;;20.20;55.50;;;;;;5050407;28;20930;-45
2021/10/08 12:37:03;;;;;;;9.70;8.50;;;20.10;56.10;;;;;;5050529;28;20431;-45
2021/10/08 12:39:33;;;;;;;10.40;8.43;;;20.20;55.70;;;;;;5050717;28;20489;-45
2021/10/08 12:42:02;;;;;;;9.13;7.50;;;20.20;55.60;;;;;;5054504;28;20507;-45
2021/10/08 12:44:34;;;;;;;9.13;7.83;;;20.30;56.10;;;;;;5054494;28;20993;-48
2021/10/08 12:47:13;;;;;;;8.53;7.70;;;20.60;55.40;;;;;;5054808;28;20459;-45
2021/10/08 12:49:46;;;;;;;10.70;8.43;;;20.70;55.20;;;;;;5054132;28;20909;-47